createdAt,value
2018-11-03T11:53:23.401Z,18.50
2018-11-03T11:55:50.688Z,16.20
2018-11-03T11:58:17.928Z,17.50
2018-11-03T12:00:45.361Z,15.37
2018-11-03T12:03:12.498Z,14.60
2018-11-03T12:05:39.776Z,14.17
2018-11-03T12:08:07.102Z,12.17
2018-11-03T12:10:34.432Z,12.27
2018-11-03T12:13:01.682Z,11.23
2018-11-03T12:15:28.936Z,10.80
2018-11-03T12:17:56.221Z,11.00
2018-11-03T12:20:23.490Z,11.50
2018-11-03T12:22:50.724Z,10.87
2018-11-03T12:25:17.987Z,10.13
2018-11-03T12:27:45.249Z,9.23
2018-11-03T12:30:13.674Z,10.57
2018-11-03T12:32:41.150Z,9.40
2018-11-03T12:35:08.809Z,9.57
2018-11-03T12:37:36.515Z,8.90
2018-11-03T12:40:04.958Z,10.07
2018-11-03T12:42:32.209Z,11.00
2018-11-03T12:44:59.538Z,11.83
2018-11-03T12:47:26.822Z,10.20
2018-11-03T12:49:58.116Z,9.67
2018-11-03T12:52:25.466Z,10.23
2018-11-03T12:54:53.063Z,10.50
2018-11-03T12:57:20.514Z,10.20
2018-11-03T12:59:47.800Z,10.10
2018-11-03T13:02:15.074Z,9.17
2018-11-03T13:04:42.473Z,9.43
2018-11-03T13:07:09.746Z,9.23
2018-11-03T13:09:37.193Z,9.77
2018-11-03T13:12:04.533Z,9.67
2018-11-03T13:14:31.771Z,8.03
2018-11-03T13:16:59.028Z,8.37
2018-11-03T13:19:26.262Z,8.50
2018-11-03T13:21:53.514Z,8.50
2018-11-03T13:24:20.779Z,7.77
2018-11-03T13:26:48.042Z,7.97
2018-11-03T13:29:15.311Z,7.90
2018-11-03T13:31:42.590Z,8.50
2018-11-03T13:34:09.858Z,7.43
2018-11-03T13:36:37.159Z,7.87
2018-11-03T13:39:06.359Z,8.20
2018-11-03T13:41:33.638Z,7.93
2018-11-03T13:44:00.926Z,6.93
2018-11-03T13:46:28.437Z,6.40
2018-11-03T13:48:56.052Z,7.23
2018-11-03T13:51:23.370Z,7.40
2018-11-03T13:53:50.636Z,6.73
2018-11-03T13:56:17.904Z,6.63
2018-11-03T13:58:45.199Z,6.53
2018-11-03T14:01:13.310Z,6.70
2018-11-03T14:03:40.602Z,6.43
2018-11-03T14:06:07.932Z,6.17
2018-11-03T14:08:35.380Z,6.90
2018-11-03T14:11:02.718Z,7.40
2018-11-03T14:13:29.946Z,7.23
2018-11-03T14:15:57.206Z,7.50
2018-11-03T14:18:24.474Z,7.97
2018-11-03T14:20:51.749Z,8.23
2018-11-03T14:23:19.041Z,9.03
2018-11-03T14:25:46.302Z,9.07
2018-11-03T14:28:13.581Z,9.17
2018-11-03T14:30:40.898Z,8.90
2018-11-03T14:33:08.222Z,8.23
2018-11-03T14:35:35.543Z,8.27
2018-11-03T14:38:02.908Z,8.33
2018-11-03T14:40:30.183Z,7.60
2018-11-03T14:42:57.494Z,7.17
2018-11-03T14:45:25.821Z,7.90
2018-11-03T14:47:52.979Z,7.50
2018-11-03T14:50:20.309Z,7.63
2018-11-03T14:52:47.611Z,7.50
2018-11-03T14:55:14.940Z,7.47
2018-11-03T14:57:42.239Z,7.70
2018-11-03T15:00:13.170Z,7.30
2018-11-03T15:02:40.662Z,7.30
2018-11-03T15:05:08.625Z,8.60
2018-11-03T15:07:36.208Z,9.17
2018-11-03T15:10:04.039Z,11.47
2018-11-03T15:12:31.386Z,15.53
2018-11-03T15:14:58.745Z,13.73
2018-11-03T15:17:26.089Z,13.37
2018-11-03T15:19:53.438Z,12.57
2018-11-03T15:22:20.732Z,17.00
2018-11-03T15:24:48.050Z,24.63
2018-11-03T15:27:15.346Z,26.00
2018-11-03T15:29:42.667Z,15.97
2018-11-03T15:32:10.020Z,11.30
2018-11-03T15:34:37.512Z,10.20
2018-11-03T15:37:05.166Z,9.73
2018-11-03T15:39:32.488Z,9.67
2018-11-03T15:41:59.934Z,11.83
2018-11-03T15:44:27.285Z,16.57
2018-11-03T15:46:54.567Z,26.17
2018-11-03T15:49:21.917Z,16.70
2018-11-03T15:51:49.571Z,13.97
2018-11-03T15:54:16.867Z,10.97
2018-11-03T15:56:44.153Z,10.50
2018-11-03T15:59:11.477Z,10.20
2018-11-03T16:01:38.750Z,10.00
2018-11-03T16:04:06.089Z,11.40
2018-11-03T16:06:33.438Z,10.63
2018-11-03T16:09:00.709Z,10.30
2018-11-03T16:11:28.075Z,9.63
2018-11-03T16:13:55.361Z,9.83
2018-11-03T16:16:22.709Z,9.50
2018-11-03T16:18:50.015Z,10.50
2018-11-03T16:21:17.335Z,9.27
2018-11-03T16:23:44.594Z,10.23
2018-11-03T16:26:11.891Z,9.70
2018-11-03T16:28:39.431Z,9.63
2018-11-03T16:31:07.070Z,10.40
2018-11-03T16:33:34.519Z,10.10
2018-11-03T16:36:02.506Z,10.67
2018-11-03T16:38:29.892Z,10.50
2018-11-03T16:40:57.175Z,10.93
2018-11-03T16:43:24.438Z,12.70
2018-11-03T16:45:51.890Z,10.70
2018-11-03T16:48:19.031Z,13.17
2018-11-03T16:50:46.315Z,12.97
2018-11-03T16:53:13.579Z,16.90
2018-11-03T16:55:40.965Z,12.97
2018-11-03T16:58:08.195Z,12.33
2018-11-03T17:00:35.462Z,14.97
2018-11-03T17:03:02.710Z,14.33
2018-11-03T17:05:30.056Z,15.20
2018-11-03T17:07:57.358Z,18.73
2018-11-03T17:10:24.595Z,20.27
2018-11-03T17:12:51.892Z,20.77
2018-11-03T17:15:19.147Z,18.03
2018-11-03T17:17:46.443Z,15.87
2018-11-03T17:20:13.743Z,15.93
2018-11-03T17:22:41.094Z,23.20
2018-11-03T17:25:09.586Z,20.40
2018-11-03T17:27:36.955Z,19.23
2018-11-03T17:30:05.418Z,21.90
2018-11-03T17:32:32.703Z,19.50
2018-11-03T17:35:00.010Z,18.50
2018-11-03T17:37:27.306Z,15.87
2018-11-03T17:39:54.605Z,16.30
2018-11-03T17:42:21.865Z,16.47
2018-11-03T17:44:49.227Z,17.50
2018-11-03T17:47:16.553Z,17.47
2018-11-03T17:49:43.814Z,17.87
2018-11-03T17:52:11.162Z,19.37
2018-11-03T17:54:38.563Z,20.60
2018-11-03T17:57:05.775Z,20.90
2018-11-03T17:59:33.777Z,21.97
2018-11-03T18:02:01.078Z,22.37
2018-11-03T18:04:28.352Z,26.47
2018-11-03T18:06:55.652Z,55.40
2018-11-03T18:09:23.034Z,51.30
2018-11-03T18:11:50.326Z,49.10
2018-11-03T18:14:17.755Z,54.97
2018-11-03T18:16:45.341Z,54.43
2018-11-03T18:19:12.690Z,35.23
2018-11-03T18:21:40.446Z,43.37
2018-11-03T18:24:07.746Z,58.80
2018-11-03T18:26:35.004Z,46.40
2018-11-03T18:29:02.291Z,41.67
2018-11-03T18:31:29.658Z,37.63
2018-11-03T18:33:56.938Z,32.90
2018-11-03T18:36:24.243Z,30.37
2018-11-03T18:38:51.503Z,23.67
2018-11-03T18:41:18.827Z,18.63
2018-11-03T18:43:46.131Z,17.10
2018-11-03T18:46:13.415Z,16.53
2018-11-03T18:48:40.690Z,19.20
2018-11-03T18:51:09.157Z,23.77
2018-11-03T18:53:36.502Z,20.77
2018-11-03T18:56:04.134Z,29.07
2018-11-03T18:58:31.413Z,24.50
2018-11-03T19:00:59.352Z,25.53
2018-11-03T19:03:26.634Z,23.70
2018-11-03T19:05:53.947Z,19.80
2018-11-03T19:08:21.264Z,16.97
2018-11-03T19:10:48.563Z,17.73
2018-11-03T19:13:15.923Z,15.07
2018-11-03T19:15:43.176Z,16.63
2018-11-03T19:18:10.468Z,18.17
2018-11-03T19:20:37.885Z,19.37
2018-11-03T19:23:05.623Z,17.00
2018-11-03T19:25:32.962Z,19.90
2018-11-03T19:28:00.300Z,19.67
2018-11-03T19:30:27.611Z,17.27
2018-11-03T19:32:54.877Z,16.73
2018-11-03T19:35:22.197Z,19.17
2018-11-03T19:37:49.494Z,19.77
2018-11-03T19:40:16.918Z,19.50
2018-11-03T19:42:44.241Z,18.77
2018-11-03T19:45:13.066Z,18.33
2018-11-03T19:47:40.302Z,16.57
2018-11-03T19:50:08.162Z,17.60
2018-11-03T19:52:35.431Z,17.90
2018-11-03T19:55:02.773Z,17.43
2018-11-03T19:57:30.080Z,19.27
2018-11-03T19:59:57.597Z,20.57
2018-11-03T20:02:24.900Z,19.50
2018-11-03T20:04:52.183Z,19.13
2018-11-03T20:07:19.584Z,18.37
2018-11-03T20:09:46.986Z,18.30
2018-11-03T20:12:14.300Z,15.80
2018-11-03T20:14:41.608Z,17.23
2018-11-03T20:17:09.226Z,17.47
2018-11-03T20:19:36.670Z,16.20
2018-11-03T20:22:04.304Z,15.77
2018-11-03T20:24:31.575Z,15.07
2018-11-03T20:26:58.846Z,16.13
2018-11-03T20:29:26.170Z,15.47
2018-11-03T20:31:53.483Z,16.30
2018-11-03T20:34:20.827Z,16.43
2018-11-03T20:36:48.127Z,13.93
2018-11-03T20:39:15.526Z,16.27
2018-11-03T20:41:42.965Z,15.93
2018-11-03T20:44:10.475Z,16.47
2018-11-03T20:46:37.754Z,15.33
2018-11-03T20:49:05.034Z,16.77
2018-11-03T20:51:32.306Z,16.73
2018-11-03T20:53:59.732Z,17.27
2018-11-03T20:56:27.194Z,18.57
2018-11-03T20:58:54.486Z,18.83
2018-11-03T21:01:21.826Z,18.50
2018-11-03T21:03:49.139Z,20.00
2018-11-03T21:06:16.437Z,17.90
2018-11-03T21:08:43.707Z,17.47
2018-11-03T21:11:11.019Z,18.23
2018-11-03T21:13:38.330Z,15.57
2018-11-03T21:16:05.632Z,16.40
2018-11-03T21:18:32.941Z,16.47
2018-11-03T21:21:00.205Z,16.40
2018-11-03T21:23:27.764Z,14.63
2018-11-03T21:25:55.020Z,15.97
2018-11-03T21:28:22.284Z,15.20
2018-11-03T21:30:49.543Z,16.13
2018-11-03T21:33:16.880Z,17.00
2018-11-03T21:35:44.082Z,16.33
2018-11-03T21:38:11.343Z,16.20
2018-11-03T21:40:38.700Z,17.13
2018-11-03T21:43:07.496Z,16.47
2018-11-03T21:45:34.822Z,16.83
2018-11-03T21:48:02.122Z,15.40
2018-11-03T21:50:29.384Z,15.97
2018-11-03T21:52:56.685Z,15.63
2018-11-03T21:55:23.952Z,15.10
2018-11-03T21:57:51.201Z,15.67
2018-11-03T22:00:18.466Z,14.97
2018-11-03T22:02:45.738Z,14.23
2018-11-03T22:05:13.658Z,14.83
2018-11-03T22:07:41.643Z,14.73
2018-11-03T22:10:09.290Z,14.27
2018-11-03T22:12:36.610Z,14.90
2018-11-03T22:15:04.329Z,14.97
2018-11-03T22:17:31.603Z,15.70
2018-11-03T22:19:58.867Z,16.23
2018-11-03T22:22:26.278Z,14.67
2018-11-03T22:24:53.540Z,15.87
2018-11-03T22:27:20.830Z,16.60
2018-11-03T22:29:48.102Z,17.23
2018-11-03T22:32:15.357Z,17.27
2018-11-03T22:34:42.607Z,18.07
2018-11-03T22:37:09.865Z,15.87
2018-11-03T22:39:37.409Z,16.27
2018-11-03T22:42:04.915Z,15.97
2018-11-03T22:44:32.142Z,16.10
2018-11-03T22:46:59.406Z,16.80
2018-11-03T22:49:26.646Z,16.07
2018-11-03T22:51:54.032Z,14.70
2018-11-03T22:54:21.305Z,14.10
2018-11-03T22:56:48.607Z,14.90
2018-11-03T22:59:16.193Z,15.03
2018-11-03T23:01:43.610Z,14.30
2018-11-03T23:04:11.243Z,14.13
2018-11-03T23:06:38.549Z,14.77
2018-11-03T23:09:06.230Z,13.33
2018-11-03T23:11:33.523Z,14.23
2018-11-03T23:14:00.805Z,13.97
2018-11-03T23:16:28.058Z,13.67
2018-11-03T23:18:55.301Z,13.63
2018-11-03T23:21:22.588Z,13.30
2018-11-03T23:23:49.819Z,13.37
2018-11-03T23:26:17.118Z,12.77
2018-11-03T23:28:44.392Z,13.17
2018-11-03T23:31:11.684Z,12.57
2018-11-03T23:33:38.935Z,13.07
2018-11-03T23:36:06.221Z,13.10
2018-11-03T23:38:34.064Z,12.57
2018-11-03T23:41:01.307Z,11.97
2018-11-03T23:43:28.559Z,12.17
2018-11-03T23:45:56.174Z,12.27
2018-11-03T23:48:23.463Z,12.70
2018-11-03T23:50:50.713Z,12.80
2018-11-03T23:53:18.045Z,11.63
2018-11-03T23:55:45.295Z,12.50
2018-11-03T23:58:12.578Z,11.83
